Terminal Aerodrome Forecast
Issued by NWS Tulsa, OK

Home | Current Version | Previous Version | Text Only | Print | Product List | Glossary On
Versions: 1 2 3 4 5 6 7 8 9 10 11 12 13 14 15
861
FTUS44 KTSA 111120
TAFTUL
TAF
KTUL 111120Z 1112/1212 35009KT P6SM BKN250
     FM112300 01005KT P6SM SCT250=

USA.gov is the U.S. government's official web portal to all federal, state and local government web resources and services.